createdAt,value
2023-11-30T00:00:20.390Z,7.00
2023-11-30T00:02:47.817Z,7.00
2023-11-30T00:05:15.292Z,7.00
2023-11-30T00:07:42.803Z,7.00
2023-11-30T00:10:10.281Z,7.00
2023-11-30T00:12:37.752Z,7.00
2023-11-30T00:15:05.692Z,7.00
2023-11-30T00:17:33.151Z,7.00
2023-11-30T00:20:00.454Z,7.00
2023-11-30T00:22:28.080Z,7.10
2023-11-30T00:24:55.455Z,7.10
2023-11-30T00:27:22.813Z,7.10
2023-11-30T00:29:50.197Z,7.10
2023-11-30T00:32:17.540Z,7.10
2023-11-30T00:34:45.562Z,7.10
2023-11-30T00:37:13.138Z,7.10
2023-11-30T00:39:40.510Z,7.10
2023-11-30T00:42:08.119Z,7.10
2023-11-30T00:44:35.468Z,7.10
2023-11-30T00:47:02.949Z,7.10
2023-11-30T00:49:30.286Z,7.10
2023-11-30T00:51:57.674Z,7.10
2023-11-30T00:54:24.960Z,7.10
2023-11-30T00:56:52.423Z,7.10
2023-11-30T00:59:19.933Z,7.10
2023-11-30T01:01:47.378Z,7.00
2023-11-30T01:04:14.845Z,6.90
2023-11-30T01:06:42.957Z,6.80
2023-11-30T01:09:10.946Z,6.80
2023-11-30T01:11:43.547Z,6.80
2023-11-30T01:14:11.206Z,6.80
2023-11-30T01:16:38.558Z,6.80
2023-11-30T01:19:06.522Z,6.80
2023-11-30T01:21:34.214Z,6.70
2023-11-30T01:24:01.573Z,6.70
2023-11-30T01:26:28.994Z,6.70
2023-11-30T01:28:56.280Z,6.60
2023-11-30T01:31:23.700Z,6.70
2023-11-30T01:33:51.338Z,6.60
2023-11-30T01:36:18.700Z,6.60
2023-11-30T01:38:46.089Z,6.60
2023-11-30T01:41:13.806Z,6.50
2023-11-30T01:43:42.240Z,6.60
2023-11-30T01:46:10.271Z,6.50
2023-11-30T01:48:38.062Z,6.50
2023-11-30T01:51:07.339Z,6.50
2023-11-30T01:53:37.749Z,6.50
2023-11-30T01:56:07.214Z,6.60
2023-11-30T01:58:35.311Z,6.60
2023-11-30T02:01:02.756Z,6.60
2023-11-30T02:03:31.333Z,6.70
2023-11-30T02:06:00.249Z,6.70
2023-11-30T02:08:29.131Z,6.70
2023-11-30T02:10:56.797Z,6.70
2023-11-30T02:13:27.376Z,6.70
2023-11-30T02:15:55.370Z,6.70
2023-11-30T02:18:25.198Z,6.80
2023-11-30T02:20:56.948Z,6.70
2023-11-30T02:23:24.596Z,6.80
2023-11-30T02:25:51.860Z,6.90
2023-11-30T02:28:19.575Z,7.00
2023-11-30T02:30:48.163Z,7.00
2023-11-30T02:33:17.344Z,7.10
2023-11-30T02:35:44.793Z,7.10
2023-11-30T02:38:12.251Z,7.10
2023-11-30T02:40:40.436Z,7.10
2023-11-30T02:43:07.779Z,7.00
2023-11-30T02:45:35.228Z,6.90
2023-11-30T02:48:03.137Z,6.80
2023-11-30T02:50:31.611Z,6.80
2023-11-30T02:53:00.856Z,6.80
2023-11-30T02:55:28.201Z,6.80
2023-11-30T02:57:55.617Z,6.80
2023-11-30T03:00:22.978Z,6.70
2023-11-30T03:02:50.497Z,6.70
2023-11-30T03:05:17.948Z,6.70
2023-11-30T03:07:45.618Z,6.70
2023-11-30T03:10:13.121Z,6.70
2023-11-30T03:12:40.649Z,6.70
2023-11-30T03:15:09.189Z,6.70
2023-11-30T03:17:36.509Z,6.70
2023-11-30T03:20:04.025Z,6.70
2023-11-30T03:22:31.411Z,6.70
2023-11-30T03:24:58.836Z,6.70
2023-11-30T03:27:26.173Z,6.70
2023-11-30T03:29:53.534Z,6.70
2023-11-30T03:32:20.907Z,6.80
2023-11-30T03:34:48.510Z,6.80
2023-11-30T03:37:15.948Z,6.70
2023-11-30T03:39:43.330Z,6.70
2023-11-30T03:42:10.668Z,6.70
2023-11-30T03:44:38.298Z,6.70
2023-11-30T03:47:05.949Z,6.70
2023-11-30T03:49:33.258Z,6.70
2023-11-30T03:52:00.571Z,6.70
2023-11-30T03:54:27.937Z,6.70
2023-11-30T03:56:55.327Z,6.80
2023-11-30T03:59:22.690Z,6.70
2023-11-30T04:01:50.107Z,6.80
2023-11-30T04:04:17.562Z,6.70
2023-11-30T04:06:44.897Z,6.80
2023-11-30T04:09:12.333Z,6.80
2023-11-30T04:11:39.671Z,6.80
2023-11-30T04:14:08.458Z,6.80
2023-11-30T04:16:36.365Z,6.80
2023-11-30T04:19:03.907Z,6.80
2023-11-30T04:21:32.274Z,6.80
2023-11-30T04:23:59.641Z,6.80
2023-11-30T04:26:27.643Z,6.80
2023-11-30T04:28:55.812Z,6.80
2023-11-30T04:31:24.107Z,6.80
2023-11-30T04:33:51.459Z,6.80
2023-11-30T04:36:18.802Z,6.80
2023-11-30T04:38:46.113Z,6.80
2023-11-30T04:41:13.435Z,6.80
2023-11-30T04:43:41.451Z,6.80
2023-11-30T04:46:09.042Z,6.80
2023-11-30T04:48:37.268Z,6.80
2023-11-30T04:52:21.392Z,6.70
2023-11-30T04:54:48.708Z,6.70
2023-11-30T04:57:16.087Z,6.80
2023-11-30T04:59:43.436Z,6.70
2023-11-30T05:02:10.978Z,6.70
2023-11-30T05:04:38.565Z,6.70
2023-11-30T05:07:05.932Z,6.70
2023-11-30T05:09:33.292Z,6.60
2023-11-30T05:12:00.969Z,6.50
2023-11-30T05:14:28.305Z,6.50
2023-11-30T05:16:55.583Z,6.60
2023-11-30T05:19:23.299Z,6.50
2023-11-30T05:21:50.572Z,6.40
2023-11-30T05:24:18.676Z,6.50
2023-11-30T05:26:46.041Z,6.40
2023-11-30T05:29:13.447Z,6.40
2023-11-30T05:31:40.921Z,6.30
2023-11-30T05:34:08.254Z,6.30
2023-11-30T05:36:35.530Z,6.30
2023-11-30T05:39:04.706Z,6.30
2023-11-30T05:41:32.121Z,6.30
2023-11-30T05:44:02.211Z,6.40
2023-11-30T05:46:29.577Z,6.40
2023-11-30T05:48:57.386Z,6.40
2023-11-30T05:51:24.779Z,6.40
2023-11-30T05:53:52.096Z,6.40
2023-11-30T05:56:19.438Z,6.40
2023-11-30T05:58:46.833Z,6.50
2023-11-30T06:01:14.260Z,6.40
2023-11-30T06:03:41.782Z,6.40
2023-11-30T06:06:11.019Z,6.40
2023-11-30T06:08:38.470Z,6.40
2023-11-30T06:11:06.042Z,6.40
2023-11-30T06:13:33.372Z,6.30
2023-11-30T06:16:00.670Z,6.30
2023-11-30T06:18:27.982Z,6.30
2023-11-30T06:20:55.355Z,6.30
2023-11-30T06:23:22.826Z,6.20
2023-11-30T06:25:50.448Z,6.20
2023-11-30T06:28:17.888Z,6.10
2023-11-30T06:30:45.832Z,6.10
2023-11-30T06:33:13.338Z,6.10
2023-11-30T06:35:40.746Z,6.10
2023-11-30T06:41:19.167Z,6.00
2023-11-30T06:43:46.625Z,6.00
2023-11-30T06:46:26.406Z,6.00
2023-11-30T06:48:53.752Z,6.00
2023-11-30T06:51:21.112Z,5.90
2023-11-30T06:53:48.420Z,5.90
2023-11-30T06:56:16.005Z,5.90
2023-11-30T06:58:43.413Z,5.90
2023-11-30T07:01:11.140Z,5.90
2023-11-30T07:03:42.766Z,5.90
2023-11-30T07:06:11.270Z,5.90
2023-11-30T07:08:38.644Z,6.00
2023-11-30T07:11:11.242Z,6.00
2023-11-30T07:13:38.800Z,5.90
2023-11-30T07:16:06.792Z,5.90
2023-11-30T07:18:34.338Z,5.90
2023-11-30T07:21:01.747Z,5.80
2023-11-30T07:23:29.051Z,5.80
2023-11-30T07:25:59.591Z,5.90
2023-11-30T07:28:27.493Z,5.90
2023-11-30T07:30:54.830Z,6.00
2023-11-30T07:33:22.241Z,6.00
2023-11-30T07:35:49.821Z,6.00
2023-11-30T07:38:17.238Z,6.00
2023-11-30T07:40:44.558Z,6.00
2023-11-30T07:43:12.846Z,6.00
2023-11-30T07:45:40.393Z,6.10
2023-11-30T07:48:07.883Z,6.00
2023-11-30T07:50:35.578Z,6.10
2023-11-30T07:53:09.619Z,6.10
2023-11-30T07:55:39.876Z,6.10
2023-11-30T07:58:07.267Z,5.90
2023-11-30T08:00:34.758Z,5.90
2023-11-30T08:03:03.022Z,5.90
2023-11-30T08:05:30.443Z,5.90
2023-11-30T08:07:57.768Z,5.90
2023-11-30T08:10:25.130Z,5.80
2023-11-30T08:12:52.684Z,5.80
2023-11-30T08:15:20.010Z,5.80
2023-11-30T08:17:47.533Z,5.80
2023-11-30T08:20:24.032Z,5.80
2023-11-30T08:22:51.323Z,5.80
2023-11-30T08:25:18.505Z,5.70
2023-11-30T08:27:50.018Z,5.70
2023-11-30T08:30:19.335Z,5.80
2023-11-30T08:32:46.712Z,5.80
2023-11-30T08:35:14.074Z,5.80
2023-11-30T08:37:41.414Z,5.70
2023-11-30T08:40:11.630Z,5.60
2023-11-30T08:42:39.083Z,5.50
2023-11-30T08:45:07.166Z,5.30
2023-11-30T08:47:34.510Z,5.20
2023-11-30T08:50:01.974Z,5.20
2023-11-30T08:52:29.346Z,5.20
2023-11-30T08:54:56.587Z,5.30
2023-11-30T08:57:24.374Z,5.30
2023-11-30T08:59:52.056Z,5.40
2023-11-30T09:02:20.871Z,5.40
2023-11-30T09:04:48.551Z,5.40
2023-11-30T09:07:15.828Z,5.50
2023-11-30T09:09:45.874Z,5.60
2023-11-30T09:12:14.986Z,5.60
2023-11-30T09:14:42.382Z,5.60
2023-11-30T09:17:09.626Z,5.50
2023-11-30T09:19:36.902Z,5.50
2023-11-30T09:22:04.597Z,5.50
2023-11-30T09:24:31.940Z,5.60
2023-11-30T09:26:59.353Z,5.60
2023-11-30T09:29:26.629Z,5.70
2023-11-30T09:31:54.159Z,5.70
2023-11-30T09:34:22.153Z,5.80
2023-11-30T09:36:50.348Z,5.90
2023-11-30T09:39:20.681Z,5.90
2023-11-30T09:41:48.114Z,5.90
2023-11-30T09:44:15.387Z,5.90
2023-11-30T09:46:43.602Z,5.90
2023-11-30T09:49:17.847Z,6.00
2023-11-30T09:52:05.357Z,6.00
2023-11-30T09:54:33.106Z,6.00
2023-11-30T09:57:00.684Z,6.00
2023-11-30T09:59:28.644Z,6.00
2023-11-30T10:02:04.648Z,6.00
2023-11-30T10:04:34.266Z,6.00
2023-11-30T10:07:03.397Z,6.00
2023-11-30T10:09:31.603Z,5.90
2023-11-30T10:11:59.169Z,6.00
2023-11-30T10:14:26.692Z,6.10
2023-11-30T10:16:54.057Z,6.10
2023-11-30T10:19:21.731Z,6.00
2023-11-30T10:21:49.129Z,6.00
2023-11-30T10:24:16.946Z,5.90
2023-11-30T10:26:44.491Z,5.90
2023-11-30T10:29:16.835Z,5.90
2023-11-30T10:31:50.587Z,5.90
2023-11-30T10:34:25.545Z,6.00
2023-11-30T10:36:56.103Z,6.10
2023-11-30T10:39:25.041Z,6.00
2023-11-30T10:41:57.002Z,6.00
2023-11-30T10:44:30.108Z,6.00
2023-11-30T10:46:59.883Z,6.00
2023-11-30T10:49:29.410Z,6.00
2023-11-30T10:52:03.682Z,6.00
2023-11-30T10:54:43.441Z,6.00
2023-11-30T10:57:11.310Z,6.10
2023-11-30T10:59:46.729Z,6.00
2023-11-30T11:02:15.504Z,6.00
2023-11-30T11:04:43.711Z,6.00
2023-11-30T11:07:14.415Z,6.00
2023-11-30T11:09:52.266Z,6.00
2023-11-30T11:12:27.278Z,6.00
2023-11-30T11:15:15.677Z,6.10
2023-11-30T11:18:08.985Z,6.00
2023-11-30T11:20:37.356Z,6.10
2023-11-30T11:23:04.731Z,6.00
2023-11-30T11:25:46.541Z,6.10
2023-11-30T11:28:18.217Z,6.10
2023-11-30T11:30:50.961Z,6.00
2023-11-30T11:33:20.532Z,6.00
2023-11-30T11:35:48.479Z,6.10
2023-11-30T11:38:15.834Z,6.10
2023-11-30T11:40:43.391Z,6.20
2023-11-30T11:43:10.735Z,6.10
2023-11-30T11:45:38.840Z,6.00
2023-11-30T11:48:09.505Z,6.10
2023-11-30T11:50:37.481Z,6.10
2023-11-30T11:53:05.050Z,6.10
2023-11-30T11:55:32.598Z,6.20
2023-11-30T11:58:00.096Z,6.20
2023-11-30T12:00:27.716Z,6.20
2023-11-30T12:03:06.662Z,6.30
2023-11-30T12:05:34.126Z,6.30
2023-11-30T12:08:02.012Z,6.30
2023-11-30T12:10:40.152Z,6.20
2023-11-30T12:13:09.402Z,6.20
2023-11-30T12:15:36.884Z,6.20
2023-11-30T12:18:04.915Z,6.20
2023-11-30T12:20:32.450Z,6.20
2023-11-30T12:23:00.395Z,6.10
2023-11-30T12:25:29.510Z,6.20
2023-11-30T12:27:57.048Z,6.20
2023-11-30T12:30:24.963Z,6.30
2023-11-30T12:32:52.702Z,6.30
2023-11-30T12:35:20.209Z,6.20
2023-11-30T12:37:49.700Z,6.30
2023-11-30T12:40:17.456Z,6.30
2023-11-30T12:42:45.037Z,6.30
2023-11-30T12:48:27.955Z,6.30
2023-11-30T12:50:55.955Z,6.30
2023-11-30T12:53:23.216Z,6.30
2023-11-30T12:55:50.651Z,6.30
2023-11-30T12:58:18.264Z,6.30
2023-11-30T13:00:45.609Z,6.30
2023-11-30T13:03:14.093Z,6.30
2023-11-30T13:05:44.370Z,6.30
2023-11-30T13:08:15.060Z,6.30
2023-11-30T13:10:42.459Z,6.30
2023-11-30T13:13:13.747Z,6.20
2023-11-30T13:15:42.041Z,6.20
2023-11-30T13:18:10.676Z,6.10
2023-11-30T13:20:38.292Z,6.10
2023-11-30T13:23:08.640Z,6.00
2023-11-30T13:25:35.944Z,5.90
2023-11-30T13:28:04.128Z,6.00
2023-11-30T13:30:38.392Z,6.00
2023-11-30T13:33:16.674Z,6.10
2023-11-30T13:35:47.706Z,6.00
2023-11-30T13:38:18.050Z,6.00
2023-11-30T13:40:46.937Z,6.00
2023-11-30T13:43:17.206Z,6.00
2023-11-30T13:45:57.689Z,6.00
2023-11-30T13:48:46.457Z,6.00
2023-11-30T13:51:33.087Z,6.00
2023-11-30T13:54:06.185Z,5.90
2023-11-30T13:56:38.285Z,6.00
2023-11-30T13:59:07.171Z,6.00
2023-11-30T14:01:39.613Z,5.90
2023-11-30T14:04:09.517Z,5.90
2023-11-30T14:06:40.867Z,5.90
2023-11-30T14:12:01.842Z,5.80
2023-11-30T14:14:29.281Z,5.70
2023-11-30T14:16:56.784Z,5.80
2023-11-30T14:19:27.168Z,5.80
2023-11-30T14:21:54.552Z,5.80
2023-11-30T14:24:47.744Z,5.80
2023-11-30T14:27:34.425Z,5.80
2023-11-30T14:30:05.246Z,5.80
2023-11-30T14:32:33.603Z,5.90
2023-11-30T14:35:01.044Z,5.80
2023-11-30T14:37:29.441Z,5.80
2023-11-30T14:39:56.714Z,5.80
2023-11-30T14:42:24.145Z,5.90
2023-11-30T14:44:52.551Z,5.90
2023-11-30T14:47:26.238Z,5.90
2023-11-30T14:49:54.447Z,5.90
2023-11-30T14:53:12.970Z,5.90
2023-11-30T14:55:58.787Z,5.80
2023-11-30T14:58:26.099Z,5.90
2023-11-30T15:00:53.511Z,5.90
2023-11-30T15:03:20.982Z,5.90
2023-11-30T15:05:48.450Z,5.90
2023-11-30T15:08:17.030Z,5.80
2023-11-30T15:10:49.280Z,5.80
2023-11-30T15:13:16.739Z,5.80
2023-11-30T15:15:44.102Z,5.80
2023-11-30T15:18:11.520Z,5.80
2023-11-30T15:20:38.878Z,5.80
2023-11-30T15:23:06.162Z,5.80
2023-11-30T15:25:34.448Z,5.80
2023-11-30T15:28:01.782Z,5.80
2023-11-30T15:30:29.102Z,5.80
2023-11-30T15:32:56.416Z,5.70
2023-11-30T15:35:23.728Z,5.80
2023-11-30T15:37:56.026Z,5.70
2023-11-30T15:40:25.809Z,5.70
2023-11-30T15:42:53.378Z,5.70
2023-11-30T15:45:24.911Z,5.70
2023-11-30T15:47:52.652Z,5.70
2023-11-30T15:50:20.751Z,5.70
2023-11-30T15:52:48.077Z,5.70
2023-11-30T15:55:15.734Z,5.60
2023-11-30T15:57:45.448Z,5.60
2023-11-30T16:00:17.081Z,5.60
2023-11-30T16:02:46.390Z,5.60
2023-11-30T16:05:27.989Z,5.70
2023-11-30T16:07:58.561Z,5.70
2023-11-30T16:10:26.843Z,5.70
2023-11-30T16:12:54.372Z,5.80
2023-11-30T16:15:21.948Z,5.80
2023-11-30T16:17:52.590Z,5.80
2023-11-30T16:20:20.053Z,5.80
2023-11-30T16:22:47.480Z,5.80
2023-11-30T16:25:14.982Z,5.80
2023-11-30T16:27:45.687Z,5.80
2023-11-30T16:30:13.664Z,5.80
2023-11-30T16:32:41.314Z,6.00
2023-11-30T16:35:09.278Z,6.00
2023-11-30T16:37:36.892Z,6.00
2023-11-30T16:40:05.780Z,5.90
2023-11-30T16:42:33.289Z,5.80
2023-11-30T16:45:00.863Z,5.80
2023-11-30T16:47:28.541Z,5.80
2023-11-30T16:49:56.172Z,5.80
2023-11-30T16:52:23.564Z,5.70
2023-11-30T16:54:50.970Z,5.80
2023-11-30T16:57:18.403Z,5.80
2023-11-30T16:59:46.208Z,5.80
2023-11-30T17:02:14.813Z,5.80
2023-11-30T17:04:43.717Z,5.80
2023-11-30T17:07:11.095Z,5.80
2023-11-30T17:09:40.344Z,5.90
2023-11-30T17:12:07.898Z,5.80
2023-11-30T17:14:35.352Z,5.80
2023-11-30T17:17:03.183Z,5.80
2023-11-30T17:19:30.501Z,5.80
2023-11-30T17:21:57.831Z,5.80
2023-11-30T17:24:26.751Z,5.80
2023-11-30T17:26:55.180Z,5.90
2023-11-30T17:29:22.519Z,5.90
2023-11-30T17:31:49.914Z,5.90
2023-11-30T17:34:17.454Z,5.90
2023-11-30T17:36:45.153Z,5.90
2023-11-30T17:39:47.884Z,5.90
2023-11-30T17:42:15.852Z,5.80
2023-11-30T17:44:43.315Z,5.90
2023-11-30T17:47:10.773Z,5.90
2023-11-30T17:49:38.131Z,5.80
2023-11-30T17:52:05.652Z,5.80
2023-11-30T17:54:33.023Z,5.80
2023-11-30T17:57:00.462Z,5.80
2023-11-30T17:59:27.878Z,5.80
2023-11-30T18:01:55.304Z,5.80
2023-11-30T18:04:22.670Z,5.80
2023-11-30T18:06:50.352Z,5.80
2023-11-30T18:09:17.889Z,5.80
2023-11-30T18:11:45.452Z,5.90
2023-11-30T18:14:12.779Z,5.90
2023-11-30T18:16:40.149Z,6.00
2023-11-30T18:19:07.552Z,6.00
2023-11-30T18:21:37.029Z,5.90
2023-11-30T18:24:04.452Z,5.80
2023-11-30T18:26:39.489Z,5.80
2023-11-30T18:29:19.248Z,5.80
2023-11-30T18:32:12.964Z,5.80
2023-11-30T18:34:40.277Z,5.80
2023-11-30T18:37:07.818Z,5.80
2023-11-30T18:39:37.490Z,5.80
2023-11-30T18:42:06.280Z,5.70
2023-11-30T18:44:33.599Z,5.70
2023-11-30T18:47:02.744Z,5.70
2023-11-30T18:50:03.174Z,5.70
2023-11-30T18:52:30.682Z,5.70
2023-11-30T18:55:28.433Z,5.80
2023-11-30T18:57:55.896Z,5.80
2023-11-30T19:00:23.302Z,5.70
2023-11-30T19:02:51.094Z,5.60
2023-11-30T19:05:18.645Z,5.60
2023-11-30T19:07:46.225Z,5.60
2023-11-30T19:10:16.737Z,5.60
2023-11-30T19:13:38.194Z,5.60
2023-11-30T19:16:06.165Z,5.60
2023-11-30T19:18:33.911Z,5.60
2023-11-30T19:21:02.206Z,5.60
2023-11-30T19:23:29.469Z,5.60
2023-11-30T19:25:56.798Z,5.60
2023-11-30T19:28:24.193Z,5.50
2023-11-30T19:30:51.622Z,5.50
2023-11-30T19:33:19.061Z,5.60
2023-11-30T19:35:46.445Z,5.60
2023-11-30T19:38:17.102Z,5.60
2023-11-30T19:40:44.558Z,5.70
2023-11-30T19:43:11.862Z,5.60
2023-11-30T19:45:39.233Z,5.60
2023-11-30T19:48:06.828Z,5.60
2023-11-30T19:50:35.493Z,5.60
2023-11-30T19:53:06.367Z,5.60
2023-11-30T19:55:35.980Z,5.60
2023-11-30T19:58:16.822Z,5.60
2023-11-30T20:00:45.505Z,5.60
2023-11-30T20:03:13.322Z,5.70
2023-11-30T20:05:41.021Z,5.60
2023-11-30T20:08:08.494Z,5.70
2023-11-30T20:10:36.301Z,5.70
2023-11-30T20:13:04.103Z,5.70
2023-11-30T20:15:31.883Z,5.80
2023-11-30T20:17:59.321Z,5.80
2023-11-30T20:20:26.844Z,5.80
2023-11-30T20:22:54.250Z,5.80
2023-11-30T20:25:21.820Z,5.70
2023-11-30T20:27:49.591Z,5.70
2023-11-30T20:30:16.974Z,5.70
2023-11-30T20:32:45.163Z,5.70
2023-11-30T20:35:12.760Z,5.70
2023-11-30T20:37:40.094Z,5.70
2023-11-30T20:40:08.559Z,5.80
2023-11-30T20:42:35.946Z,5.80
2023-11-30T20:45:04.168Z,5.80
2023-11-30T20:47:31.747Z,5.90
2023-11-30T20:49:59.735Z,5.80
2023-11-30T20:52:27.104Z,5.90
2023-11-30T20:54:55.346Z,5.90
2023-11-30T20:57:22.875Z,5.80
2023-11-30T20:59:50.502Z,5.90
2023-11-30T21:02:18.327Z,5.80
2023-11-30T21:04:48.286Z,5.90
2023-11-30T21:07:15.998Z,5.90
2023-11-30T21:09:44.438Z,5.90
2023-11-30T21:12:14.058Z,5.80
2023-11-30T21:14:42.902Z,5.80
2023-11-30T21:17:13.814Z,5.80
2023-11-30T21:19:41.406Z,5.80
2023-11-30T21:22:09.298Z,5.80
2023-11-30T21:24:39.593Z,5.80
2023-11-30T21:27:07.144Z,5.80
2023-11-30T21:29:35.087Z,5.80
2023-11-30T21:32:03.695Z,5.80
2023-11-30T21:34:31.197Z,5.80
2023-11-30T21:36:59.181Z,5.90
2023-11-30T21:39:27.160Z,5.90
2023-11-30T21:41:54.986Z,5.80
2023-11-30T21:44:22.354Z,5.80
2023-11-30T21:46:49.647Z,5.80
2023-11-30T21:49:19.781Z,5.80
2023-11-30T21:51:47.813Z,5.90
2023-11-30T21:54:15.458Z,5.80
2023-11-30T21:56:43.245Z,5.90
2023-11-30T21:59:10.687Z,5.90
2023-11-30T22:01:38.327Z,5.90
2023-11-30T22:04:07.202Z,5.90
2023-11-30T22:06:34.755Z,5.90
2023-11-30T22:09:02.424Z,5.90
2023-11-30T22:11:31.882Z,5.90
2023-11-30T22:13:59.262Z,5.80
2023-11-30T22:16:33.242Z,5.80
2023-11-30T22:19:06.404Z,5.80
2023-11-30T22:21:33.867Z,5.80
2023-11-30T22:24:01.236Z,5.80
2023-11-30T22:26:28.945Z,5.80
2023-11-30T22:28:57.152Z,5.80
2023-11-30T22:31:24.978Z,5.90
2023-11-30T22:33:52.428Z,5.90
2023-11-30T22:36:20.168Z,5.90
2023-11-30T22:38:47.519Z,5.90
2023-11-30T22:41:15.054Z,5.80
2023-11-30T22:43:42.646Z,5.80
2023-11-30T22:46:18.216Z,5.80
2023-11-30T22:49:02.061Z,5.90
2023-11-30T22:51:29.944Z,5.90
2023-11-30T22:53:57.358Z,5.80
2023-11-30T22:56:26.464Z,5.90
2023-11-30T22:58:53.920Z,5.90
2023-11-30T23:01:22.162Z,5.80
2023-11-30T23:03:49.861Z,5.80
2023-11-30T23:06:17.898Z,5.80
2023-11-30T23:08:45.558Z,5.90
2023-11-30T23:11:13.066Z,5.90
2023-11-30T23:13:40.663Z,5.90
2023-11-30T23:16:08.886Z,5.90
2023-11-30T23:18:36.612Z,5.90
2023-11-30T23:21:04.439Z,5.90
2023-11-30T23:23:31.808Z,5.90
2023-11-30T23:25:59.313Z,6.00
2023-11-30T23:28:27.126Z,5.90
2023-11-30T23:30:54.690Z,5.90
2023-11-30T23:33:22.116Z,5.90
2023-11-30T23:35:49.828Z,5.90
2023-11-30T23:38:17.161Z,5.90
2023-11-30T23:40:44.442Z,5.90
2023-11-30T23:43:12.149Z,5.90
2023-11-30T23:45:39.550Z,6.00
2023-11-30T23:48:06.895Z,6.10
2023-11-30T23:50:34.389Z,6.00
2023-11-30T23:53:01.665Z,6.00
2023-11-30T23:55:28.950Z,6.00
2023-11-30T23:57:57.272Z,5.90
